createdAt,value
2022-10-19T00:01:42.605Z,8.00
2022-10-19T00:04:09.465Z,8.10
2022-10-19T00:06:37.330Z,8.10
2022-10-19T00:09:05.892Z,8.20
2022-10-19T00:11:33.560Z,8.20
2022-10-19T00:14:01.263Z,8.20
2022-10-19T00:16:30.728Z,8.20
2022-10-19T00:18:58.708Z,8.20
2022-10-19T00:21:26.313Z,8.30
2022-10-19T00:23:53.111Z,8.30
2022-10-19T00:26:19.739Z,8.30
2022-10-19T00:28:46.618Z,8.30
2022-10-19T00:31:15.992Z,8.30
2022-10-19T00:33:46.459Z,8.40
2022-10-19T00:36:25.944Z,8.40
2022-10-19T00:38:54.432Z,8.40
2022-10-19T00:41:22.810Z,8.50
2022-10-19T00:43:58.395Z,8.50
2022-10-19T00:46:26.755Z,8.50
2022-10-19T00:49:01.375Z,8.60
2022-10-19T00:51:29.993Z,8.50
2022-10-19T00:53:57.573Z,8.50
2022-10-19T00:56:24.671Z,8.60
2022-10-19T00:58:51.443Z,8.60
2022-10-19T01:01:20.691Z,8.60
2022-10-19T01:03:47.421Z,8.60
2022-10-19T01:06:16.866Z,8.60
2022-10-19T01:08:43.632Z,8.60
2022-10-19T01:11:34.380Z,8.60
2022-10-19T01:14:43.104Z,8.60
2022-10-19T01:17:24.774Z,8.60
2022-10-19T01:20:07.356Z,8.70
2022-10-19T01:22:39.695Z,8.60
2022-10-19T01:25:31.551Z,8.60
2022-10-19T01:28:19.393Z,8.60
2022-10-19T01:31:11.156Z,8.60
2022-10-19T01:34:01.178Z,8.60
2022-10-19T01:36:43.156Z,8.60
2022-10-19T01:39:40.280Z,8.60
2022-10-19T01:42:06.963Z,8.60
2022-10-19T01:44:36.789Z,8.60
2022-10-19T01:47:07.256Z,8.60
2022-10-19T01:49:56.900Z,8.60
2022-10-19T01:52:25.130Z,8.50
2022-10-19T01:54:57.069Z,8.50
2022-10-19T01:57:29.429Z,8.50
2022-10-19T01:59:57.923Z,8.50
2022-10-19T02:02:27.248Z,8.50
2022-10-19T02:04:56.717Z,8.40
2022-10-19T02:07:25.468Z,8.40
2022-10-19T02:09:52.207Z,8.40
2022-10-19T02:12:20.353Z,8.40
2022-10-19T02:14:51.573Z,8.40
2022-10-19T02:17:38.289Z,8.40
2022-10-19T02:20:06.011Z,8.40
2022-10-19T02:22:32.957Z,8.40
2022-10-19T02:25:00.152Z,8.40
2022-10-19T02:27:27.169Z,8.50
2022-10-19T02:29:54.258Z,8.40
2022-10-19T02:32:21.019Z,8.40
2022-10-19T02:34:47.968Z,8.30
2022-10-19T02:37:14.707Z,8.30
2022-10-19T02:39:41.371Z,8.30
2022-10-19T02:42:24.970Z,8.40
2022-10-19T02:45:10.051Z,8.30
2022-10-19T02:47:43.087Z,8.30
2022-10-19T02:50:10.903Z,8.30
2022-10-19T02:52:38.716Z,8.30
2022-10-19T02:55:06.880Z,8.30
2022-10-19T02:57:33.977Z,8.30
2022-10-19T03:00:00.805Z,8.20
2022-10-19T03:02:27.495Z,8.10
2022-10-19T03:04:54.164Z,8.10
2022-10-19T03:07:23.031Z,8.10
2022-10-19T03:09:49.986Z,8.10
2022-10-19T03:12:16.711Z,8.00
2022-10-19T03:14:43.764Z,8.00
2022-10-19T03:17:10.847Z,8.00
2022-10-19T03:19:38.248Z,8.00
2022-10-19T03:22:05.751Z,7.90
2022-10-19T03:24:32.966Z,8.00
2022-10-19T03:26:59.708Z,7.90
2022-10-19T03:29:26.455Z,7.90
2022-10-19T03:31:53.080Z,7.90
2022-10-19T03:34:19.721Z,7.90
2022-10-19T03:36:46.436Z,7.90
2022-10-19T03:39:15.345Z,7.90
2022-10-19T03:41:42.454Z,7.80
2022-10-19T03:44:10.476Z,7.70
2022-10-19T03:46:37.558Z,7.70
2022-10-19T03:49:05.387Z,7.70
2022-10-19T03:51:32.516Z,7.70
2022-10-19T03:54:01.948Z,7.60
2022-10-19T03:56:30.343Z,7.60
2022-10-19T03:58:59.149Z,7.60
2022-10-19T04:01:31.905Z,7.60
2022-10-19T04:04:05.159Z,7.70
2022-10-19T04:06:37.643Z,7.70
2022-10-19T04:09:04.972Z,7.70
2022-10-19T04:11:33.350Z,7.70
2022-10-19T04:14:00.771Z,7.70
2022-10-19T04:16:28.908Z,7.70
2022-10-19T04:18:55.672Z,7.70
2022-10-19T04:21:27.047Z,7.70
2022-10-19T04:23:59.984Z,7.70
2022-10-19T04:26:26.691Z,7.70
2022-10-19T04:28:53.810Z,7.70
2022-10-19T04:31:20.556Z,7.70
2022-10-19T04:36:13.747Z,7.60
2022-10-19T04:38:40.424Z,7.60
2022-10-19T04:41:10.428Z,7.60
2022-10-19T04:43:37.921Z,7.60
2022-10-19T04:46:10.232Z,7.60
2022-10-19T04:48:38.594Z,7.60
2022-10-19T04:51:05.953Z,7.60
2022-10-19T04:53:33.786Z,7.60
2022-10-19T04:56:04.276Z,7.60
2022-10-19T04:58:30.957Z,7.70
2022-10-19T05:00:57.773Z,7.70
2022-10-19T05:03:24.560Z,7.70
2022-10-19T05:05:51.204Z,7.70
2022-10-19T05:08:17.880Z,7.80
2022-10-19T05:10:47.618Z,7.80
2022-10-19T05:13:14.736Z,7.80
2022-10-19T05:15:41.432Z,7.80
2022-10-19T05:18:08.811Z,7.80
2022-10-19T05:20:35.591Z,7.80
2022-10-19T05:23:06.232Z,7.80
2022-10-19T05:25:33.956Z,7.80
2022-10-19T05:28:12.067Z,7.70
2022-10-19T05:30:39.247Z,7.70
2022-10-19T05:33:05.954Z,7.70
2022-10-19T05:35:32.715Z,7.70
2022-10-19T05:37:59.348Z,7.70
2022-10-19T05:40:26.007Z,7.70
2022-10-19T05:42:52.666Z,7.70
2022-10-19T05:45:19.313Z,7.70
2022-10-19T05:47:45.900Z,7.70
2022-10-19T05:50:12.533Z,7.70
2022-10-19T05:52:39.204Z,7.70
2022-10-19T05:55:06.457Z,7.70
2022-10-19T05:57:33.441Z,7.70
2022-10-19T06:00:00.369Z,7.70
2022-10-19T06:02:26.996Z,7.70
2022-10-19T06:04:53.682Z,7.70
2022-10-19T06:07:20.395Z,7.60
2022-10-19T06:09:47.793Z,7.60
2022-10-19T06:12:16.188Z,7.60
2022-10-19T06:14:43.151Z,7.60
2022-10-19T06:17:09.947Z,7.60
2022-10-19T06:19:36.829Z,7.60
2022-10-19T06:22:03.822Z,7.70
2022-10-19T06:24:30.601Z,7.70
2022-10-19T06:26:57.320Z,7.70
2022-10-19T06:29:23.961Z,7.70
2022-10-19T06:31:51.984Z,7.80
2022-10-19T06:34:18.848Z,7.80
2022-10-19T06:36:45.520Z,7.80
2022-10-19T06:39:12.138Z,7.80
2022-10-19T06:41:38.806Z,7.80
2022-10-19T06:44:05.760Z,7.90
2022-10-19T06:46:33.808Z,7.90
2022-10-19T06:49:02.241Z,7.90
2022-10-19T06:51:30.773Z,8.00
2022-10-19T06:53:57.727Z,8.00
2022-10-19T06:56:25.880Z,8.00
2022-10-19T06:58:53.127Z,8.00
2022-10-19T07:01:20.106Z,8.00
2022-10-19T07:03:47.160Z,8.10
2022-10-19T07:06:14.084Z,8.10
2022-10-19T07:08:42.551Z,8.10
2022-10-19T07:11:12.054Z,8.10
2022-10-19T07:13:39.409Z,8.20
2022-10-19T07:16:14.652Z,8.30
2022-10-19T07:18:45.208Z,8.30
2022-10-19T07:21:14.654Z,8.40
2022-10-19T07:23:43.364Z,8.40
2022-10-19T07:26:21.080Z,8.50
2022-10-19T07:28:48.973Z,8.50
2022-10-19T07:31:18.431Z,8.50
2022-10-19T07:33:45.184Z,8.50
2022-10-19T07:36:13.726Z,8.50
2022-10-19T07:38:40.796Z,8.60
2022-10-19T07:41:12.774Z,8.60
2022-10-19T07:43:40.655Z,8.60
2022-10-19T07:46:11.497Z,8.70
2022-10-19T07:48:38.205Z,8.70
2022-10-19T07:51:06.921Z,8.80
2022-10-19T07:53:34.849Z,8.80
2022-10-19T07:56:16.175Z,8.90
2022-10-19T07:58:43.221Z,9.00
2022-10-19T08:01:17.942Z,9.00
2022-10-19T08:06:32.395Z,9.10
2022-10-19T08:08:59.138Z,9.00
2022-10-19T08:11:28.810Z,9.10
2022-10-19T08:13:56.056Z,9.10
2022-10-19T08:16:28.487Z,9.20
2022-10-19T08:18:59.502Z,9.30
2022-10-19T08:21:27.375Z,9.40
2022-10-19T08:23:54.068Z,9.40
2022-10-19T08:26:21.037Z,9.50
2022-10-19T08:28:48.471Z,9.60
2022-10-19T08:31:18.362Z,9.60
2022-10-19T08:33:45.420Z,9.70
2022-10-19T08:36:13.520Z,9.80
2022-10-19T08:38:41.387Z,9.90
2022-10-19T08:41:29.215Z,10.10
2022-10-19T08:44:22.103Z,10.30
2022-10-19T08:47:19.695Z,10.50
2022-10-19T08:49:49.394Z,10.80
2022-10-19T08:52:33.430Z,11.10
2022-10-19T08:55:09.039Z,11.40
2022-10-19T08:58:02.412Z,11.70
2022-10-19T09:00:48.231Z,11.80
2022-10-19T09:03:37.658Z,12.10
2022-10-19T09:06:21.956Z,12.60
2022-10-19T09:08:54.220Z,12.70
2022-10-19T09:11:23.221Z,12.60
2022-10-19T09:14:04.789Z,12.50
2022-10-19T09:16:34.878Z,12.50
2022-10-19T09:19:03.830Z,12.80
2022-10-19T09:22:00.339Z,13.00
2022-10-19T09:24:29.869Z,13.30
2022-10-19T09:27:00.619Z,13.60
2022-10-19T09:29:44.778Z,13.50
2022-10-19T09:32:29.881Z,13.30
2022-10-19T09:35:25.840Z,13.30
2022-10-19T09:37:54.054Z,13.20
2022-10-19T09:40:29.443Z,13.00
2022-10-19T09:42:57.802Z,12.90
2022-10-19T09:45:56.601Z,12.80
2022-10-19T09:48:39.411Z,12.90
2022-10-19T09:51:13.092Z,12.70
2022-10-19T09:53:49.748Z,12.70
2022-10-19T09:56:20.964Z,12.60
2022-10-19T09:58:53.144Z,12.50
2022-10-19T10:01:41.876Z,12.40
2022-10-19T10:04:15.319Z,12.30
2022-10-19T10:06:44.029Z,12.30
2022-10-19T10:09:26.188Z,12.20
2022-10-19T10:14:29.238Z,12.10
2022-10-19T10:20:06.763Z,12.10
2022-10-19T10:22:36.278Z,12.10
2022-10-19T10:25:13.708Z,12.10
2022-10-19T10:27:40.447Z,12.10
2022-10-19T10:30:16.892Z,12.10
2022-10-19T10:32:52.942Z,12.20
2022-10-19T10:35:34.676Z,12.20
2022-10-19T10:38:39.101Z,12.30
2022-10-19T10:41:17.783Z,12.30
2022-10-19T10:43:59.713Z,12.40
2022-10-19T10:46:34.682Z,12.40
2022-10-19T10:49:07.097Z,12.30
2022-10-19T10:51:40.250Z,12.30
2022-10-19T10:54:22.749Z,12.50
2022-10-19T10:57:15.770Z,12.80
2022-10-19T11:00:12.175Z,13.00
2022-10-19T11:03:00.718Z,13.50
2022-10-19T11:05:34.556Z,13.80
2022-10-19T11:08:43.001Z,14.10
2022-10-19T11:11:45.089Z,14.40
2022-10-19T11:14:30.381Z,14.60
2022-10-19T11:17:04.553Z,14.60
2022-10-19T11:19:40.304Z,14.60
2022-10-19T11:22:09.902Z,14.50
2022-10-19T11:24:51.417Z,14.30
2022-10-19T11:27:36.993Z,14.10
2022-10-19T11:30:10.068Z,13.90
2022-10-19T11:32:55.580Z,13.90
2022-10-19T11:35:47.413Z,13.90
2022-10-19T11:38:36.597Z,14.00
2022-10-19T11:41:18.615Z,14.10
2022-10-19T11:44:01.023Z,14.10
2022-10-19T11:46:34.795Z,14.00
2022-10-19T11:49:13.627Z,13.80
2022-10-19T11:51:59.522Z,13.80
2022-10-19T11:54:49.451Z,13.80
2022-10-19T11:57:49.391Z,13.90
2022-10-19T12:00:39.199Z,14.10
2022-10-19T12:03:34.519Z,14.40
2022-10-19T12:06:31.773Z,14.50
2022-10-19T12:09:16.798Z,14.50
2022-10-19T12:12:09.472Z,14.30
2022-10-19T12:14:40.376Z,14.10
2022-10-19T12:17:24.224Z,14.10
2022-10-19T12:19:55.180Z,14.10
2022-10-19T12:22:26.535Z,14.20
2022-10-19T12:24:58.236Z,14.30
2022-10-19T12:27:37.037Z,14.40
2022-10-19T12:30:08.782Z,14.50
2022-10-19T12:32:55.968Z,14.50
2022-10-19T12:35:35.056Z,14.40
2022-10-19T12:38:18.095Z,14.40
2022-10-19T12:41:06.475Z,14.50
2022-10-19T12:43:51.336Z,14.50
2022-10-19T12:46:23.217Z,14.50
2022-10-19T12:49:31.004Z,14.70
2022-10-19T12:51:59.899Z,14.70
2022-10-19T12:54:29.074Z,14.60
2022-10-19T12:56:57.320Z,14.40
2022-10-19T12:59:32.444Z,14.40
2022-10-19T13:02:00.595Z,14.40
2022-10-19T13:04:30.244Z,14.30
2022-10-19T13:06:56.800Z,14.20
2022-10-19T13:09:30.037Z,14.20
2022-10-19T13:12:19.418Z,14.30
2022-10-19T13:14:59.042Z,14.40
2022-10-19T13:17:36.387Z,14.30
2022-10-19T13:20:15.382Z,14.40
2022-10-19T13:23:01.332Z,14.50
2022-10-19T13:25:31.468Z,14.60
2022-10-19T13:28:07.314Z,14.50
2022-10-19T13:30:41.624Z,14.40
2022-10-19T13:33:29.600Z,14.40
2022-10-19T13:35:59.381Z,14.50
2022-10-19T13:38:39.762Z,14.50
2022-10-19T13:41:28.242Z,14.60
2022-10-19T13:44:09.020Z,14.60
2022-10-19T13:47:00.442Z,14.50
2022-10-19T13:49:34.663Z,14.60
2022-10-19T13:52:26.283Z,14.60
2022-10-19T13:55:11.258Z,14.50
2022-10-19T13:57:50.003Z,14.30
2022-10-19T14:00:25.054Z,14.20
2022-10-19T14:03:07.976Z,14.20
2022-10-19T14:05:54.770Z,14.20
2022-10-19T14:08:32.107Z,14.40
2022-10-19T14:11:02.411Z,14.50
2022-10-19T14:13:29.745Z,14.50
2022-10-19T14:15:58.638Z,14.40
2022-10-19T14:18:32.175Z,14.40
2022-10-19T14:21:07.841Z,14.50
2022-10-19T14:23:37.947Z,14.50
2022-10-19T14:26:14.668Z,14.60
2022-10-19T14:28:43.411Z,14.60
2022-10-19T14:31:17.518Z,14.60
2022-10-19T14:33:48.081Z,14.60
2022-10-19T14:36:19.239Z,14.50
2022-10-19T14:38:48.472Z,14.60
2022-10-19T14:41:36.285Z,14.50
2022-10-19T14:44:28.045Z,14.60
2022-10-19T14:46:55.608Z,14.50
2022-10-19T14:49:22.841Z,14.40
2022-10-19T14:51:54.983Z,14.30
2022-10-19T14:54:31.084Z,14.30
2022-10-19T14:57:03.043Z,14.20
2022-10-19T14:59:35.296Z,14.00
2022-10-19T15:02:09.260Z,14.00
2022-10-19T15:04:38.551Z,13.80
2022-10-19T15:07:17.048Z,13.80
2022-10-19T15:09:50.279Z,13.70
2022-10-19T15:12:20.290Z,13.60
2022-10-19T15:14:47.970Z,13.50
2022-10-19T15:17:29.878Z,13.40
2022-10-19T15:20:01.081Z,13.40
2022-10-19T15:22:30.927Z,13.30
2022-10-19T15:25:03.142Z,13.10
2022-10-19T15:27:31.468Z,13.00
2022-10-19T15:29:59.493Z,12.90
2022-10-19T15:32:35.571Z,12.90
2022-10-19T15:35:12.921Z,12.80
2022-10-19T15:37:43.835Z,12.70
2022-10-19T15:40:13.208Z,12.60
2022-10-19T15:42:45.518Z,12.50
2022-10-19T15:45:47.634Z,12.50
2022-10-19T15:48:44.775Z,12.40
2022-10-19T15:51:26.470Z,12.30
2022-10-19T15:53:56.799Z,12.30
2022-10-19T15:56:25.073Z,12.20
2022-10-19T15:58:53.535Z,12.10
2022-10-19T16:01:22.730Z,12.00
2022-10-19T16:03:49.793Z,12.00
2022-10-19T16:06:18.054Z,11.90
2022-10-19T16:08:46.295Z,11.90
2022-10-19T16:11:14.715Z,11.80
2022-10-19T16:13:41.452Z,11.70
2022-10-19T16:16:11.512Z,11.60
2022-10-19T16:18:38.728Z,11.60
2022-10-19T16:21:05.671Z,11.50
2022-10-19T16:23:37.779Z,11.40
2022-10-19T16:26:08.035Z,11.40
2022-10-19T16:28:34.688Z,11.40
2022-10-19T16:31:01.355Z,11.30
2022-10-19T16:33:28.021Z,11.20
2022-10-19T16:35:54.682Z,11.10
2022-10-19T16:38:21.357Z,11.10
2022-10-19T16:40:48.191Z,10.90
2022-10-19T16:43:15.122Z,10.90
2022-10-19T16:45:44.919Z,10.80
2022-10-19T16:48:14.408Z,10.80
2022-10-19T16:50:41.381Z,10.70
2022-10-19T16:53:10.385Z,10.60
2022-10-19T16:55:40.550Z,10.50
2022-10-19T16:58:07.670Z,10.50
2022-10-19T17:00:35.634Z,10.50
2022-10-19T17:03:02.308Z,10.40
2022-10-19T17:05:29.764Z,10.30
2022-10-19T17:07:56.497Z,10.30
2022-10-19T17:10:24.221Z,10.20
2022-10-19T17:12:50.991Z,10.20
2022-10-19T17:15:41.393Z,10.10
2022-10-19T17:18:04.639Z,10.10
2022-10-19T17:20:33.217Z,10.00
2022-10-19T17:22:59.828Z,10.00
2022-10-19T17:25:26.454Z,9.90
2022-10-19T17:27:53.228Z,9.80
2022-10-19T17:30:19.963Z,9.80
2022-10-19T17:32:46.697Z,9.80
2022-10-19T17:35:13.310Z,9.70
2022-10-19T17:37:39.986Z,9.60
2022-10-19T17:40:07.381Z,9.60
2022-10-19T17:42:36.470Z,9.50
2022-10-19T17:45:03.300Z,9.40
2022-10-19T17:47:30.561Z,9.40
2022-10-19T17:49:57.255Z,9.30
2022-10-19T17:52:23.904Z,9.30
2022-10-19T17:55:11.160Z,9.30
2022-10-19T17:57:37.624Z,9.20
2022-10-19T18:00:07.061Z,9.20
2022-10-19T18:02:35.366Z,9.10
2022-10-19T18:05:02.508Z,9.10
2022-10-19T18:07:29.167Z,9.00
2022-10-19T18:09:55.833Z,9.00
2022-10-19T18:12:22.526Z,8.90
2022-10-19T18:14:49.269Z,8.80
2022-10-19T18:17:15.861Z,8.70
2022-10-19T18:19:42.635Z,8.60
2022-10-19T18:22:09.275Z,8.50
2022-10-19T18:24:35.894Z,8.50
2022-10-19T18:27:02.642Z,8.40
2022-10-19T18:29:29.395Z,8.40
2022-10-19T18:31:56.126Z,8.30
2022-10-19T18:34:25.846Z,8.20
2022-10-19T18:36:53.291Z,8.20
2022-10-19T18:39:20.025Z,8.10
2022-10-19T18:41:48.190Z,8.10
2022-10-19T18:44:14.843Z,8.10
2022-10-19T18:46:41.792Z,8.00
2022-10-19T18:49:08.860Z,7.90
2022-10-19T18:51:36.020Z,7.90
2022-10-19T18:54:02.715Z,7.90
2022-10-19T18:56:29.537Z,7.80
2022-10-19T18:58:59.102Z,7.80
2022-10-19T19:01:28.322Z,7.80
2022-10-19T19:03:57.495Z,7.70
2022-10-19T19:06:31.595Z,7.70
2022-10-19T19:09:01.573Z,7.60
2022-10-19T19:11:32.998Z,7.60
2022-10-19T19:14:06.442Z,7.50
2022-10-19T19:16:36.659Z,7.50
2022-10-19T19:19:03.862Z,7.60
2022-10-19T19:21:31.342Z,7.50
2022-10-19T19:24:00.362Z,7.50
2022-10-19T19:26:30.410Z,7.50
2022-10-19T19:28:57.547Z,7.40
2022-10-19T19:31:24.944Z,7.40
2022-10-19T19:33:51.971Z,7.40
2022-10-19T19:36:19.435Z,7.30
2022-10-19T19:38:46.236Z,7.20
2022-10-19T19:41:15.035Z,7.20
2022-10-19T19:43:42.682Z,7.10
2022-10-19T19:46:12.851Z,7.10
2022-10-19T19:48:41.693Z,7.00
2022-10-19T19:51:13.223Z,6.90
2022-10-19T19:53:40.278Z,6.90
2022-10-19T19:56:08.594Z,6.90
2022-10-19T19:58:35.472Z,6.80
2022-10-19T20:01:12.588Z,6.80
2022-10-19T20:03:40.983Z,6.80
2022-10-19T20:06:08.346Z,6.70
2022-10-19T20:08:36.816Z,6.70
2022-10-19T20:11:12.476Z,6.70
2022-10-19T20:13:39.951Z,6.70
2022-10-19T20:16:12.579Z,6.70
2022-10-19T20:18:47.884Z,6.60
2022-10-19T20:21:15.860Z,6.60
2022-10-19T20:23:46.838Z,6.60
2022-10-19T20:26:18.278Z,6.50
2022-10-19T20:28:45.916Z,6.50
2022-10-19T20:31:13.413Z,6.50
2022-10-19T20:33:41.840Z,6.40
2022-10-19T20:36:11.661Z,6.50
2022-10-19T20:38:39.302Z,6.40
2022-10-19T20:41:08.285Z,6.40
2022-10-19T20:43:37.015Z,6.40
2022-10-19T20:46:11.057Z,6.40
2022-10-19T20:48:37.745Z,6.30
2022-10-19T20:51:15.805Z,6.30
2022-10-19T20:53:46.249Z,6.30
2022-10-19T20:56:14.544Z,6.30
2022-10-19T20:58:43.487Z,6.20
2022-10-19T21:01:11.754Z,6.20
2022-10-19T21:03:38.899Z,6.20
2022-10-19T21:06:07.252Z,6.10
2022-10-19T21:08:35.421Z,6.10
2022-10-19T21:11:16.716Z,6.00
2022-10-19T21:13:44.024Z,6.00
2022-10-19T21:16:12.926Z,5.90
2022-10-19T21:18:40.324Z,5.90
2022-10-19T21:21:20.149Z,5.90
2022-10-19T21:23:50.415Z,5.80
2022-10-19T21:26:17.567Z,5.80
2022-10-19T21:28:48.471Z,5.70
2022-10-19T21:31:16.598Z,5.70
2022-10-19T21:33:43.587Z,5.70
2022-10-19T21:36:11.182Z,5.60
2022-10-19T21:38:38.216Z,5.60
2022-10-19T21:41:07.531Z,5.60
2022-10-19T21:43:35.156Z,5.60
2022-10-19T21:46:06.539Z,5.50
2022-10-19T21:48:34.396Z,5.50
2022-10-19T21:51:09.973Z,5.50
2022-10-19T21:53:45.640Z,5.50
2022-10-19T21:56:14.424Z,5.40
2022-10-19T21:58:46.021Z,5.40
2022-10-19T22:01:12.669Z,5.30
2022-10-19T22:03:39.368Z,5.20
2022-10-19T22:06:06.414Z,5.20
2022-10-19T22:08:33.129Z,5.20
2022-10-19T22:11:08.044Z,5.10
2022-10-19T22:13:35.665Z,5.10
2022-10-19T22:16:17.296Z,5.00
2022-10-19T22:18:44.376Z,5.00
2022-10-19T22:21:33.118Z,4.90
2022-10-19T22:24:01.915Z,4.90
2022-10-19T22:26:30.950Z,4.90
2022-10-19T22:28:59.461Z,4.80
2022-10-19T22:31:27.977Z,4.80
2022-10-19T22:33:54.927Z,4.70
2022-10-19T22:36:21.611Z,4.80
2022-10-19T22:38:48.313Z,4.70
2022-10-19T22:41:15.075Z,4.70
2022-10-19T22:43:41.782Z,4.70
2022-10-19T22:46:08.571Z,4.60
2022-10-19T22:48:35.287Z,4.70
2022-10-19T22:51:01.992Z,4.60
2022-10-19T22:53:28.633Z,4.60
2022-10-19T22:55:55.337Z,4.60
2022-10-19T22:58:21.967Z,4.50
2022-10-19T23:01:00.492Z,4.50
2022-10-19T23:03:27.150Z,4.50
2022-10-19T23:05:53.822Z,4.50
2022-10-19T23:08:20.517Z,4.50
2022-10-19T23:10:47.226Z,4.50
2022-10-19T23:13:15.045Z,4.50
2022-10-19T23:15:43.921Z,4.50
2022-10-19T23:18:11.352Z,4.50
2022-10-19T23:20:38.008Z,4.50
2022-10-19T23:23:04.815Z,4.50
2022-10-19T23:27:59.098Z,4.40
2022-10-19T23:30:25.819Z,4.40
2022-10-19T23:32:52.426Z,4.30
2022-10-19T23:35:19.093Z,4.30
2022-10-19T23:37:45.690Z,4.30
2022-10-19T23:40:12.476Z,4.30
2022-10-19T23:42:39.155Z,4.30
2022-10-19T23:45:06.379Z,4.30
2022-10-19T23:47:33.211Z,4.30
2022-10-19T23:50:00.108Z,4.20
2022-10-19T23:52:26.713Z,4.20
2022-10-19T23:54:53.395Z,4.20
2022-10-19T23:57:20.063Z,4.20
2022-10-19T23:59:46.716Z,4.10
